createdAt,value
2023-03-29T00:01:35.818Z,87.75
2023-03-29T00:06:38.561Z,87.20
2023-03-29T00:11:40.759Z,87.66
2023-03-29T00:16:44.837Z,88.12
2023-03-29T00:21:46.693Z,87.48
2023-03-29T00:26:48.623Z,86.49
2023-03-29T00:31:54.010Z,88.88
2023-03-29T00:36:58.060Z,88.95
2023-03-29T00:41:59.782Z,90.70
2023-03-29T00:47:01.488Z,89.47
2023-03-29T00:52:03.618Z,89.00
2023-03-29T00:57:06.936Z,89.55
2023-03-29T01:02:09.458Z,87.85
2023-03-29T01:07:14.137Z,88.10
2023-03-29T01:12:20.868Z,86.89
2023-03-29T01:17:25.576Z,87.95
2023-03-29T01:22:51.898Z,88.00
2023-03-29T01:28:03.023Z,88.71
2023-03-29T01:33:27.982Z,88.44
2023-03-29T01:38:39.393Z,90.18
2023-03-29T01:43:56.335Z,91.32
2023-03-29T01:49:11.261Z,90.78
2023-03-29T01:54:19.400Z,91.81
2023-03-29T01:59:28.375Z,93.04
2023-03-29T02:04:37.124Z,93.54
2023-03-29T02:09:40.131Z,92.89
2023-03-29T02:14:41.911Z,90.22
2023-03-29T02:19:46.128Z,86.61
2023-03-29T02:24:51.010Z,85.56
2023-03-29T02:29:54.778Z,86.39
2023-03-29T02:35:04.662Z,86.41
2023-03-29T02:40:08.033Z,87.60
2023-03-29T02:45:15.589Z,87.52
2023-03-29T02:50:18.816Z,86.48
2023-03-29T02:55:24.934Z,86.48
2023-03-29T03:00:26.664Z,84.63
2023-03-29T03:05:31.059Z,86.06
2023-03-29T03:10:34.779Z,87.78
2023-03-29T03:15:37.279Z,85.85
2023-03-29T03:20:40.129Z,88.20
2023-03-29T03:25:41.810Z,86.69
2023-03-29T03:30:43.826Z,87.22
2023-03-29T03:36:06.857Z,86.23
2023-03-29T03:41:10.863Z,88.75
2023-03-29T03:46:13.669Z,87.69
2023-03-29T03:51:15.671Z,85.47
2023-03-29T03:56:17.781Z,86.79
2023-03-29T04:01:43.353Z,85.72
2023-03-29T04:06:51.750Z,86.56
2023-03-29T04:12:19.570Z,85.96
2023-03-29T04:17:21.934Z,87.54
2023-03-29T04:22:34.672Z,86.48
2023-03-29T04:27:36.990Z,87.20
2023-03-29T04:32:45.362Z,86.41
2023-03-29T04:37:48.254Z,87.27
2023-03-29T04:42:51.746Z,87.66
2023-03-29T04:47:59.596Z,86.66
2023-03-29T04:53:01.628Z,85.87
2023-03-29T04:58:04.790Z,85.38
2023-03-29T05:03:13.537Z,85.65
2023-03-29T05:08:27.959Z,85.92
2023-03-29T05:13:42.990Z,84.21
2023-03-29T05:18:45.130Z,86.35
2023-03-29T05:23:47.084Z,85.94
2023-03-29T05:28:52.344Z,86.32
2023-03-29T05:33:54.407Z,85.94
2023-03-29T05:38:57.132Z,83.89
2023-03-29T05:43:59.919Z,82.12
2023-03-29T05:49:03.170Z,82.29
2023-03-29T05:54:24.208Z,80.50
2023-03-29T05:59:28.412Z,82.16
2023-03-29T06:04:31.915Z,81.46
2023-03-29T06:09:54.164Z,83.13
2023-03-29T06:14:58.234Z,83.04
2023-03-29T06:20:11.850Z,80.53
2023-03-29T06:25:17.696Z,81.26
2023-03-29T06:30:21.813Z,78.21
2023-03-29T06:35:27.728Z,78.99
2023-03-29T06:40:38.224Z,79.99
2023-03-29T06:45:40.700Z,80.54
2023-03-29T06:50:54.449Z,79.59
2023-03-29T06:55:59.685Z,78.91
2023-03-29T07:01:17.834Z,78.04
2023-03-29T07:06:34.324Z,78.62
2023-03-29T07:11:36.896Z,79.72
2023-03-29T07:17:05.826Z,80.38
2023-03-29T07:22:10.948Z,78.02
2023-03-29T07:27:22.338Z,79.25
2023-03-29T07:32:24.804Z,78.85
2023-03-29T07:37:46.467Z,74.56
2023-03-29T07:42:53.226Z,76.51
2023-03-29T07:47:58.346Z,75.60
2023-03-29T07:53:03.346Z,79.16
2023-03-29T07:58:06.459Z,79.80
2023-03-29T08:03:13.225Z,75.76
2023-03-29T08:08:16.163Z,74.47
2023-03-29T08:13:25.916Z,74.55
2023-03-29T08:19:02.883Z,73.20
2023-03-29T08:24:22.141Z,76.22
2023-03-29T08:29:29.313Z,75.46
2023-03-29T08:34:31.856Z,76.80
2023-03-29T08:39:52.277Z,75.13
2023-03-29T08:45:39.847Z,76.52
2023-03-29T08:50:52.783Z,79.67
2023-03-29T08:55:58.743Z,79.47
2023-03-29T09:01:20.833Z,78.08
2023-03-29T09:06:29.037Z,75.30
2023-03-29T09:12:00.143Z,77.20
2023-03-29T09:17:33.194Z,74.55
2023-03-29T09:23:06.932Z,76.15
2023-03-29T09:28:27.077Z,73.50
2023-03-29T09:33:56.955Z,75.25
2023-03-29T09:39:04.829Z,73.24
2023-03-29T09:44:27.725Z,72.85
2023-03-29T09:49:39.886Z,72.67
2023-03-29T09:54:42.382Z,72.73
2023-03-29T10:00:07.333Z,71.57
2023-03-29T10:05:17.994Z,71.18
2023-03-29T10:10:24.250Z,68.62
2023-03-29T10:15:30.405Z,68.29
2023-03-29T10:20:36.301Z,67.15
2023-03-29T10:25:42.985Z,67.22
2023-03-29T10:30:52.475Z,68.40
2023-03-29T10:35:57.253Z,66.52
2023-03-29T10:41:12.799Z,68.31
2023-03-29T10:46:41.563Z,68.28
2023-03-29T10:51:49.193Z,66.77
2023-03-29T10:57:03.420Z,63.57
2023-03-29T11:02:14.309Z,63.13
2023-03-29T11:07:28.176Z,61.20
2023-03-29T11:12:44.997Z,60.62
2023-03-29T11:18:22.239Z,61.10
2023-03-29T11:23:43.177Z,60.46
2023-03-29T11:29:07.201Z,60.77
2023-03-29T11:34:30.674Z,60.58
2023-03-29T11:39:44.935Z,58.95
2023-03-29T11:44:52.821Z,58.10
2023-03-29T11:49:58.878Z,59.14
2023-03-29T11:55:13.496Z,58.69
2023-03-29T12:00:19.677Z,57.14
2023-03-29T12:05:32.381Z,56.93
2023-03-29T12:10:43.194Z,55.37
2023-03-29T12:16:16.508Z,55.15
2023-03-29T12:21:23.404Z,54.98
2023-03-29T12:26:34.855Z,56.69
2023-03-29T12:32:13.843Z,56.25
2023-03-29T12:37:32.553Z,56.53
2023-03-29T12:42:57.723Z,56.67
2023-03-29T12:48:22.324Z,57.21
2023-03-29T12:53:45.908Z,56.85
2023-03-29T12:58:53.578Z,56.50
2023-03-29T13:04:01.494Z,57.13
2023-03-29T13:09:21.503Z,59.33
2023-03-29T13:14:30.035Z,60.13
2023-03-29T13:19:44.051Z,61.48
2023-03-29T13:25:14.472Z,60.35
2023-03-29T13:30:34.480Z,61.03
2023-03-29T13:35:42.506Z,60.68
2023-03-29T13:40:46.954Z,60.56
2023-03-29T13:45:57.572Z,62.41
2023-03-29T13:51:08.383Z,61.54
2023-03-29T13:56:17.098Z,62.33
2023-03-29T14:01:31.309Z,62.14
2023-03-29T14:06:36.612Z,61.68
2023-03-29T14:11:38.460Z,62.75
2023-03-29T14:16:41.779Z,63.49
2023-03-29T14:21:45.127Z,62.69
2023-03-29T14:26:47.918Z,60.67
2023-03-29T14:31:50.220Z,63.54
2023-03-29T14:36:54.235Z,65.86
2023-03-29T14:41:59.781Z,62.05
2023-03-29T14:47:03.447Z,63.16
2023-03-29T14:52:06.017Z,63.27
2023-03-29T14:57:20.787Z,61.92
2023-03-29T15:02:29.428Z,59.17
2023-03-29T15:07:33.604Z,60.58
2023-03-29T15:12:37.984Z,61.85
2023-03-29T15:17:50.371Z,64.10
2023-03-29T15:23:00.950Z,63.77
2023-03-29T15:28:02.763Z,63.75
2023-03-29T15:33:16.475Z,61.94
2023-03-29T15:38:23.377Z,63.34
2023-03-29T15:43:30.989Z,62.48
2023-03-29T15:48:33.924Z,61.97
2023-03-29T15:53:36.172Z,62.58
2023-03-29T15:58:38.580Z,63.79
2023-03-29T16:03:41.656Z,65.00
2023-03-29T16:08:53.995Z,66.09
2023-03-29T16:13:57.845Z,67.82
2023-03-29T16:18:59.696Z,65.72
2023-03-29T16:24:01.683Z,65.65
2023-03-29T16:29:03.341Z,66.61
2023-03-29T16:34:05.733Z,66.59
2023-03-29T16:39:07.431Z,65.83
2023-03-29T16:44:15.800Z,66.89
2023-03-29T16:49:18.225Z,67.18
2023-03-29T16:54:19.979Z,67.97
2023-03-29T16:59:21.864Z,67.99
2023-03-29T17:04:23.639Z,68.18
2023-03-29T17:09:26.650Z,70.45
2023-03-29T17:14:30.088Z,71.30
2023-03-29T17:19:31.798Z,71.58
2023-03-29T17:24:33.403Z,72.83
2023-03-29T17:29:35.263Z,73.45
2023-03-29T17:34:37.303Z,71.08
2023-03-29T17:39:38.946Z,72.08
2023-03-29T17:44:40.542Z,74.41
2023-03-29T17:49:42.240Z,76.15
2023-03-29T17:54:43.868Z,75.70
2023-03-29T17:59:45.495Z,75.37
2023-03-29T18:04:47.309Z,74.98
2023-03-29T18:09:49.981Z,74.55
2023-03-29T18:14:52.153Z,75.85
2023-03-29T18:19:53.971Z,75.98
2023-03-29T18:24:56.414Z,76.57
2023-03-29T18:29:58.794Z,78.56
2023-03-29T18:35:02.309Z,78.02
2023-03-29T18:40:07.971Z,78.47
2023-03-29T18:45:10.687Z,78.67
2023-03-29T18:50:13.204Z,78.69
2023-03-29T18:55:15.374Z,79.24
2023-03-29T19:00:17.454Z,80.62
2023-03-29T19:05:19.131Z,81.40
2023-03-29T19:10:21.182Z,82.60
2023-03-29T19:15:23.040Z,83.06
2023-03-29T19:20:25.534Z,83.89
2023-03-29T19:25:27.763Z,83.70
2023-03-29T19:30:31.119Z,84.05
2023-03-29T19:35:32.866Z,82.05
2023-03-29T19:40:34.714Z,83.61
2023-03-29T19:45:36.365Z,83.22
2023-03-29T19:50:42.743Z,83.90
2023-03-29T19:55:45.278Z,85.36
2023-03-29T20:00:47.357Z,85.27
2023-03-29T20:05:49.088Z,85.49
2023-03-29T20:11:02.340Z,85.36
2023-03-29T20:16:15.158Z,85.07
2023-03-29T20:21:18.367Z,83.45
2023-03-29T20:26:20.048Z,83.41
2023-03-29T20:31:22.088Z,82.75
2023-03-29T20:36:24.022Z,84.24
2023-03-29T20:41:26.748Z,86.30
2023-03-29T20:46:33.819Z,85.87
2023-03-29T20:51:36.840Z,84.05
2023-03-29T20:56:42.381Z,82.73
2023-03-29T21:01:44.371Z,86.02
2023-03-29T21:06:49.579Z,86.33
2023-03-29T21:12:07.217Z,86.20
2023-03-29T21:17:09.346Z,86.51
2023-03-29T21:22:13.803Z,88.29
2023-03-29T21:27:15.536Z,88.22
2023-03-29T21:32:17.173Z,87.11
2023-03-29T21:37:18.798Z,86.01
2023-03-29T21:42:20.752Z,86.23
2023-03-29T21:47:22.435Z,86.32
2023-03-29T21:52:24.157Z,85.62
2023-03-29T21:57:25.931Z,87.22
2023-03-29T22:02:27.791Z,86.79
2023-03-29T22:07:29.675Z,86.17
2023-03-29T22:12:34.488Z,88.05
2023-03-29T22:17:36.348Z,87.22
2023-03-29T22:22:50.683Z,88.02
2023-03-29T22:27:52.381Z,89.08
2023-03-29T22:32:54.147Z,88.61
2023-03-29T22:37:56.080Z,87.77
2023-03-29T22:42:57.731Z,89.49
2023-03-29T22:47:59.874Z,89.20
2023-03-29T22:53:01.694Z,90.38
2023-03-29T22:58:03.647Z,87.95
2023-03-29T23:03:06.657Z,87.56
2023-03-29T23:08:08.390Z,88.75
2023-03-29T23:13:10.600Z,89.07
2023-03-29T23:18:15.458Z,87.90
2023-03-29T23:23:19.200Z,88.29
2023-03-29T23:28:24.522Z,90.90
2023-03-29T23:33:27.066Z,92.59
2023-03-29T23:38:29.099Z,90.01
2023-03-29T23:43:33.963Z,88.45
2023-03-29T23:48:36.029Z,87.85
2023-03-29T23:53:38.236Z,89.85
2023-03-29T23:58:39.990Z,90.78
